createdAt,value
2023-11-07T00:00:28.977Z,2.30
2023-11-07T00:02:56.593Z,1.92
2023-11-07T00:05:23.752Z,2.35
2023-11-07T00:07:50.921Z,1.70
2023-11-07T00:10:17.737Z,1.80
2023-11-07T00:12:45.009Z,1.95
2023-11-07T00:15:12.268Z,1.70
2023-11-07T00:17:39.206Z,2.05
2023-11-07T00:20:06.694Z,1.92
2023-11-07T00:22:34.237Z,1.60
2023-11-07T00:25:01.021Z,1.88
2023-11-07T00:27:29.094Z,1.67
2023-11-07T00:29:55.904Z,1.77
2023-11-07T00:32:22.624Z,1.90
2023-11-07T00:34:49.573Z,2.63
2023-11-07T00:37:16.632Z,1.67
2023-11-07T00:39:44.008Z,1.40
2023-11-07T00:42:10.657Z,1.55
2023-11-07T00:44:37.405Z,1.63
2023-11-07T00:47:04.203Z,1.77
2023-11-07T00:49:31.009Z,1.65
2023-11-07T00:52:01.507Z,2.28
2023-11-07T00:54:29.004Z,2.08
2023-11-07T00:56:56.562Z,1.80
2023-11-07T00:59:23.315Z,2.00
2023-11-07T01:01:53.237Z,1.98
2023-11-07T01:04:20.120Z,1.80
2023-11-07T01:06:47.568Z,2.55
2023-11-07T01:09:17.853Z,1.50
2023-11-07T01:11:47.557Z,1.77
2023-11-07T01:14:17.065Z,2.30
2023-11-07T01:16:43.827Z,1.90
2023-11-07T01:19:13.342Z,1.85
2023-11-07T01:21:40.240Z,2.50
2023-11-07T01:24:11.165Z,2.22
2023-11-07T01:26:38.003Z,2.33
2023-11-07T01:29:04.977Z,2.30
2023-11-07T01:31:31.699Z,2.22
2023-11-07T01:33:58.748Z,2.42
2023-11-07T01:36:25.552Z,1.65
2023-11-07T01:38:54.537Z,1.90
2023-11-07T01:41:21.605Z,2.08
2023-11-07T01:43:48.640Z,1.88
2023-11-07T01:46:18.326Z,2.30
2023-11-07T01:48:50.440Z,2.22
2023-11-07T01:51:17.479Z,2.30
2023-11-07T01:53:44.902Z,1.92
2023-11-07T01:56:11.617Z,1.85
2023-11-07T01:58:38.719Z,2.40
2023-11-07T02:01:06.457Z,2.10
2023-11-07T02:03:33.804Z,1.70
2023-11-07T02:06:00.729Z,2.42
2023-11-07T02:08:28.924Z,2.25
2023-11-07T02:10:55.587Z,2.72
2023-11-07T02:13:22.612Z,2.25
2023-11-07T02:15:49.373Z,2.60
2023-11-07T02:18:16.274Z,2.10
2023-11-07T02:20:46.776Z,2.50
2023-11-07T02:23:31.771Z,2.65
2023-11-07T02:26:04.470Z,2.40
2023-11-07T02:28:31.241Z,2.20
2023-11-07T02:30:58.980Z,2.00
2023-11-07T02:33:26.180Z,1.83
2023-11-07T02:35:53.072Z,1.77
2023-11-07T02:38:21.440Z,1.77
2023-11-07T02:40:50.229Z,1.90
2023-11-07T02:43:21.058Z,2.00
2023-11-07T02:45:49.741Z,2.20
2023-11-07T02:48:16.641Z,2.00
2023-11-07T02:50:43.677Z,1.80
2023-11-07T02:53:10.488Z,1.50
2023-11-07T02:55:37.328Z,1.63
2023-11-07T02:58:04.051Z,2.10
2023-11-07T03:00:31.041Z,1.65
2023-11-07T03:03:00.590Z,1.70
2023-11-07T03:05:27.561Z,1.90
2023-11-07T03:07:54.661Z,1.67
2023-11-07T03:10:21.396Z,1.70
2023-11-07T03:12:50.827Z,1.58
2023-11-07T03:15:17.561Z,1.60
2023-11-07T03:17:48.196Z,1.80
2023-11-07T03:20:15.392Z,1.60
2023-11-07T03:22:42.950Z,1.60
2023-11-07T03:25:10.309Z,1.70
2023-11-07T03:27:38.347Z,1.20
2023-11-07T03:30:07.115Z,1.38
2023-11-07T03:32:34.094Z,1.50
2023-11-07T03:35:05.765Z,1.75
2023-11-07T03:37:33.413Z,1.05
2023-11-07T03:40:00.289Z,1.20
2023-11-07T03:42:29.826Z,1.30
2023-11-07T03:44:57.824Z,1.00
2023-11-07T03:47:24.641Z,1.35
2023-11-07T03:49:55.618Z,1.10
2023-11-07T03:52:22.916Z,1.10
2023-11-07T03:54:52.625Z,1.20
2023-11-07T03:57:19.355Z,1.20
2023-11-07T03:59:46.452Z,1.48
2023-11-07T04:02:13.791Z,1.52
2023-11-07T04:04:40.569Z,1.65
2023-11-07T04:07:07.444Z,1.48
2023-11-07T04:09:37.956Z,1.33
2023-11-07T04:12:04.911Z,1.23
2023-11-07T04:14:31.653Z,1.40
2023-11-07T04:17:01.214Z,1.20
2023-11-07T04:19:28.040Z,1.10
2023-11-07T04:21:57.982Z,1.10
2023-11-07T04:24:28.431Z,1.23
2023-11-07T04:26:56.851Z,1.50
2023-11-07T04:29:24.386Z,1.30
2023-11-07T04:31:51.104Z,1.48
2023-11-07T04:34:18.326Z,1.35
2023-11-07T04:36:48.257Z,1.33
2023-11-07T04:39:17.683Z,1.17
2023-11-07T04:41:44.815Z,1.33
2023-11-07T04:44:12.538Z,1.40
2023-11-07T04:46:43.383Z,1.60
2023-11-07T04:49:11.480Z,1.58
2023-11-07T04:51:38.383Z,1.65
2023-11-07T04:54:05.312Z,1.25
2023-11-07T04:56:32.035Z,1.33
2023-11-07T04:58:59.199Z,1.27
2023-11-07T05:01:26.463Z,1.73
2023-11-07T05:03:54.689Z,1.58
2023-11-07T05:06:22.240Z,1.52
2023-11-07T05:08:50.877Z,1.50
2023-11-07T05:11:18.774Z,1.27
2023-11-07T05:13:46.182Z,1.33
2023-11-07T05:16:13.224Z,1.50
2023-11-07T05:18:40.048Z,1.40
2023-11-07T05:21:08.622Z,1.85
2023-11-07T05:23:36.402Z,1.70
2023-11-07T05:26:04.347Z,1.88
2023-11-07T05:28:31.228Z,1.98
2023-11-07T05:30:57.980Z,2.05
2023-11-07T05:33:24.956Z,1.58
2023-11-07T05:35:51.821Z,1.90
2023-11-07T05:38:19.001Z,1.63
2023-11-07T05:40:45.944Z,2.72
2023-11-07T05:43:20.554Z,2.30
2023-11-07T05:45:47.342Z,2.30
2023-11-07T05:48:14.335Z,2.80
2023-11-07T05:50:41.451Z,2.33
2023-11-07T05:53:09.436Z,1.90
2023-11-07T05:55:36.491Z,1.55
2023-11-07T05:58:03.868Z,2.35
2023-11-07T06:00:30.888Z,1.83
2023-11-07T06:02:57.725Z,1.58
2023-11-07T06:05:24.945Z,1.80
2023-11-07T06:07:56.498Z,1.73
2023-11-07T06:10:23.644Z,1.75
2023-11-07T06:12:50.934Z,1.70
2023-11-07T06:15:18.379Z,1.70
2023-11-07T06:17:45.380Z,1.58
2023-11-07T06:20:13.438Z,1.85
2023-11-07T06:22:40.928Z,1.80
2023-11-07T06:25:08.382Z,1.90
2023-11-07T06:27:35.243Z,1.98
2023-11-07T06:30:07.711Z,2.10
2023-11-07T06:32:34.787Z,2.50
2023-11-07T06:35:01.605Z,2.30
2023-11-07T06:37:34.503Z,1.80
2023-11-07T06:40:17.224Z,1.50
2023-11-07T06:42:47.126Z,1.63
2023-11-07T06:45:14.866Z,1.70
2023-11-07T06:47:47.008Z,1.50
2023-11-07T06:50:15.363Z,1.38
2023-11-07T06:52:44.670Z,2.00
2023-11-07T06:55:14.446Z,1.60
2023-11-07T06:57:42.460Z,1.60
2023-11-07T07:00:10.885Z,1.40
2023-11-07T07:02:41.776Z,1.50
2023-11-07T07:05:13.892Z,1.55
2023-11-07T07:07:43.875Z,1.50
2023-11-07T07:10:11.679Z,2.35
2023-11-07T07:12:39.491Z,1.70
2023-11-07T07:15:07.566Z,1.33
2023-11-07T07:17:35.002Z,1.50
2023-11-07T07:20:12.542Z,1.50
2023-11-07T07:22:40.354Z,1.50
2023-11-07T07:25:07.517Z,1.40
2023-11-07T07:27:37.196Z,1.48
2023-11-07T07:30:07.532Z,1.80
2023-11-07T07:32:37.260Z,1.67
2023-11-07T07:35:15.860Z,1.60
2023-11-07T07:37:54.874Z,1.50
2023-11-07T07:40:26.618Z,1.63
2023-11-07T07:43:00.532Z,1.50
2023-11-07T07:45:27.703Z,1.92
2023-11-07T07:47:55.128Z,1.70
2023-11-07T07:50:22.120Z,1.77
2023-11-07T07:52:55.410Z,1.70
2023-11-07T07:55:31.866Z,1.58
2023-11-07T07:58:02.007Z,1.70
2023-11-07T08:00:32.115Z,1.42
2023-11-07T08:02:59.829Z,1.50
2023-11-07T08:05:29.072Z,1.90
2023-11-07T08:07:55.942Z,1.95
2023-11-07T08:10:23.471Z,1.80
2023-11-07T08:12:57.219Z,1.38
2023-11-07T08:15:27.914Z,1.27
2023-11-07T08:17:55.643Z,1.23
2023-11-07T08:20:24.220Z,1.30
2023-11-07T08:22:53.308Z,1.40
2023-11-07T08:25:22.391Z,1.10
2023-11-07T08:27:52.053Z,1.23
2023-11-07T08:30:23.907Z,1.50
2023-11-07T08:32:51.615Z,1.85
2023-11-07T08:35:19.778Z,1.30
2023-11-07T08:37:48.433Z,1.10
2023-11-07T08:40:18.746Z,1.15
2023-11-07T08:42:45.693Z,1.48
2023-11-07T08:45:17.654Z,1.20
2023-11-07T08:47:48.016Z,1.15
2023-11-07T08:50:15.391Z,1.10
2023-11-07T08:52:42.900Z,1.50
2023-11-07T08:55:12.235Z,1.40
2023-11-07T08:57:40.081Z,1.10
2023-11-07T09:00:13.322Z,1.52
2023-11-07T09:02:48.448Z,1.20
2023-11-07T09:05:17.785Z,1.20
2023-11-07T09:07:46.076Z,1.40
2023-11-07T09:10:13.495Z,1.92
2023-11-07T09:12:43.118Z,1.55
2023-11-07T09:15:13.391Z,2.15
2023-11-07T09:17:42.905Z,1.60
2023-11-07T09:20:15.850Z,1.77
2023-11-07T09:22:43.518Z,1.90
2023-11-07T09:25:11.046Z,1.77
2023-11-07T09:27:41.211Z,1.40
2023-11-07T09:30:12.607Z,1.50
2023-11-07T09:32:45.853Z,1.63
2023-11-07T09:35:12.927Z,1.83
2023-11-07T09:37:43.277Z,0.98
2023-11-07T09:40:22.078Z,1.23
2023-11-07T09:42:52.013Z,1.10
2023-11-07T09:45:22.893Z,1.38
2023-11-07T09:47:51.150Z,1.52
2023-11-07T09:50:20.651Z,1.50
2023-11-07T09:52:49.150Z,1.67
2023-11-07T09:55:17.024Z,1.42
2023-11-07T09:58:15.192Z,1.80
2023-11-07T10:00:45.278Z,1.67
2023-11-07T10:03:15.862Z,1.80
2023-11-07T10:05:44.587Z,1.52
2023-11-07T10:08:11.565Z,1.70
2023-11-07T10:10:40.727Z,1.30
2023-11-07T10:13:12.378Z,1.58
2023-11-07T10:15:42.018Z,1.42
2023-11-07T10:18:11.396Z,1.60
2023-11-07T10:20:49.128Z,1.70
2023-11-07T10:23:16.254Z,1.50
2023-11-07T10:25:42.947Z,1.63
2023-11-07T10:28:15.917Z,1.40
2023-11-07T10:30:47.352Z,1.50
2023-11-07T10:33:43.519Z,1.48
2023-11-07T10:36:10.777Z,1.42
2023-11-07T10:38:40.740Z,1.65
2023-11-07T10:41:07.733Z,1.80
2023-11-07T10:43:43.417Z,2.10
2023-11-07T10:46:11.559Z,1.90
2023-11-07T10:48:40.928Z,1.40
2023-11-07T10:51:12.380Z,1.65
2023-11-07T10:53:44.598Z,1.70
2023-11-07T10:56:16.514Z,1.70
2023-11-07T10:59:03.614Z,1.83
2023-11-07T11:01:35.632Z,1.50
2023-11-07T11:04:04.114Z,1.50
2023-11-07T11:06:33.060Z,1.80
2023-11-07T11:09:07.684Z,1.42
2023-11-07T11:11:34.976Z,1.70
2023-11-07T11:14:05.038Z,1.30
2023-11-07T11:16:31.976Z,1.50
2023-11-07T11:19:25.270Z,1.60
2023-11-07T11:22:30.672Z,1.20
2023-11-07T11:25:16.497Z,1.38
2023-11-07T11:27:48.287Z,1.42
2023-11-07T11:30:18.305Z,1.50
2023-11-07T11:32:46.166Z,1.38
2023-11-07T11:35:22.494Z,1.30
2023-11-07T11:38:24.874Z,1.30
2023-11-07T11:41:01.034Z,1.65
2023-11-07T11:43:33.795Z,1.13
2023-11-07T11:46:14.558Z,1.30
2023-11-07T11:48:51.008Z,1.33
2023-11-07T11:51:40.839Z,1.20
2023-11-07T11:54:09.636Z,1.30
2023-11-07T11:56:56.925Z,1.23
2023-11-07T11:59:30.264Z,1.40
2023-11-07T12:02:06.464Z,1.25
2023-11-07T12:04:37.740Z,1.42
2023-11-07T12:07:21.733Z,1.08
2023-11-07T12:09:55.029Z,1.35
2023-11-07T12:12:26.226Z,1.45
2023-11-07T12:15:00.949Z,1.45
2023-11-07T12:17:33.733Z,1.35
2023-11-07T12:20:08.048Z,1.42
2023-11-07T12:22:35.692Z,1.58
2023-11-07T12:25:20.836Z,1.50
2023-11-07T12:27:57.072Z,1.10
2023-11-07T12:30:23.889Z,1.40
2023-11-07T12:33:01.413Z,1.60
2023-11-07T12:35:31.687Z,1.50
2023-11-07T12:38:01.627Z,1.63
2023-11-07T12:40:29.272Z,1.35
2023-11-07T12:42:57.114Z,1.17
2023-11-07T12:45:35.958Z,1.88
2023-11-07T12:48:05.622Z,0.90
2023-11-07T12:50:35.132Z,1.20
2023-11-07T12:53:04.984Z,1.00
2023-11-07T12:55:36.273Z,1.20
2023-11-07T12:58:04.816Z,1.10
2023-11-07T13:00:52.436Z,1.58
2023-11-07T13:03:25.207Z,1.55
2023-11-07T13:05:58.726Z,1.45
2023-11-07T13:08:34.321Z,1.10
2023-11-07T13:11:20.549Z,1.25
2023-11-07T13:13:48.382Z,1.27
2023-11-07T13:16:16.161Z,1.17
2023-11-07T13:18:53.254Z,1.30
2023-11-07T13:21:21.556Z,1.10
2023-11-07T13:23:49.225Z,1.50
2023-11-07T13:26:16.151Z,1.60
2023-11-07T13:28:43.897Z,1.40
2023-11-07T13:31:14.846Z,1.10
2023-11-07T13:33:44.117Z,1.20
2023-11-07T13:36:13.244Z,1.25
2023-11-07T13:38:40.259Z,1.40
2023-11-07T13:41:07.917Z,1.40
2023-11-07T13:43:38.207Z,1.23
2023-11-07T13:46:08.087Z,1.33
2023-11-07T13:48:36.947Z,1.10
2023-11-07T13:51:04.394Z,1.40
2023-11-07T13:53:37.593Z,1.35
2023-11-07T13:56:05.773Z,1.65
2023-11-07T13:58:33.593Z,1.08
2023-11-07T14:01:00.584Z,1.50
2023-11-07T14:03:30.411Z,1.50
2023-11-07T14:05:57.936Z,1.38
2023-11-07T14:08:25.253Z,2.08
2023-11-07T14:10:52.230Z,1.95
2023-11-07T14:13:20.764Z,1.70
2023-11-07T14:15:52.747Z,1.50
2023-11-07T14:18:25.576Z,1.77
2023-11-07T14:20:58.737Z,1.73
2023-11-07T14:23:25.721Z,1.60
2023-11-07T14:25:55.903Z,1.60
2023-11-07T14:28:25.506Z,1.92
2023-11-07T14:30:58.937Z,2.03
2023-11-07T14:33:28.876Z,1.92
2023-11-07T14:35:59.946Z,2.13
2023-11-07T14:38:30.080Z,1.58
2023-11-07T14:41:00.498Z,1.70
2023-11-07T14:43:27.223Z,1.40
2023-11-07T14:45:54.204Z,1.67
2023-11-07T14:48:23.206Z,1.52
2023-11-07T14:50:54.148Z,1.60
2023-11-07T14:53:24.440Z,1.60
2023-11-07T14:55:51.337Z,1.38
2023-11-07T14:58:21.725Z,1.48
2023-11-07T15:00:50.670Z,1.67
2023-11-07T15:03:18.610Z,1.80
2023-11-07T15:05:45.818Z,1.63
2023-11-07T15:08:13.076Z,1.80
2023-11-07T15:10:39.921Z,1.73
2023-11-07T15:13:07.510Z,1.95
2023-11-07T15:15:35.384Z,1.95
2023-11-07T15:18:03.431Z,1.80
2023-11-07T15:20:32.737Z,1.95
2023-11-07T15:23:01.875Z,1.70
2023-11-07T15:25:31.925Z,1.77
2023-11-07T15:27:59.244Z,1.58
2023-11-07T15:30:28.193Z,2.05
2023-11-07T15:32:57.307Z,2.08
2023-11-07T15:35:25.512Z,1.80
2023-11-07T15:37:52.857Z,2.30
2023-11-07T15:40:22.830Z,1.70
2023-11-07T15:42:50.674Z,1.95
2023-11-07T15:45:21.763Z,2.42
2023-11-07T15:47:48.771Z,5.43
2023-11-07T15:50:19.065Z,2.38
2023-11-07T15:53:06.913Z,2.20
2023-11-07T15:55:41.113Z,2.38
2023-11-07T15:58:08.071Z,2.30
2023-11-07T16:00:38.064Z,2.28
2023-11-07T16:03:06.135Z,2.55
2023-11-07T16:05:35.512Z,2.58
2023-11-07T16:08:03.398Z,2.95
2023-11-07T16:10:32.482Z,2.80
2023-11-07T16:12:59.300Z,2.45
2023-11-07T16:15:27.359Z,2.15
2023-11-07T16:17:54.334Z,1.90
2023-11-07T16:20:21.492Z,2.40
2023-11-07T16:22:49.375Z,2.05
2023-11-07T16:25:17.791Z,2.30
2023-11-07T16:27:44.980Z,1.60
2023-11-07T16:30:16.916Z,1.70
2023-11-07T16:32:44.180Z,2.35
2023-11-07T16:35:11.877Z,2.00
2023-11-07T16:37:39.161Z,1.83
2023-11-07T16:40:12.503Z,2.22
2023-11-07T16:42:42.840Z,2.15
2023-11-07T16:45:13.552Z,2.00
2023-11-07T16:47:43.094Z,1.98
2023-11-07T16:50:14.493Z,1.80
2023-11-07T16:52:42.088Z,2.00
2023-11-07T16:55:10.121Z,2.00
2023-11-07T16:57:39.761Z,2.08
2023-11-07T17:00:12.023Z,2.58
2023-11-07T17:02:39.473Z,2.33
2023-11-07T17:05:09.736Z,2.17
2023-11-07T17:07:39.964Z,2.50
2023-11-07T17:10:11.752Z,1.73
2023-11-07T17:12:39.307Z,2.55
2023-11-07T17:15:12.846Z,2.30
2023-11-07T17:17:41.390Z,2.42
2023-11-07T17:20:09.323Z,2.90
2023-11-07T17:22:37.341Z,1.83
2023-11-07T17:25:05.563Z,1.90
2023-11-07T17:27:33.314Z,2.25
2023-11-07T17:30:00.735Z,2.65
2023-11-07T17:32:29.220Z,2.63
2023-11-07T17:34:59.659Z,2.92
2023-11-07T17:37:29.539Z,2.70
2023-11-07T17:39:57.146Z,2.40
2023-11-07T17:42:25.206Z,2.20
2023-11-07T17:44:52.170Z,2.30
2023-11-07T17:47:19.461Z,2.95
2023-11-07T17:49:47.858Z,2.90
2023-11-07T17:52:14.700Z,3.22
2023-11-07T17:54:41.519Z,3.28
2023-11-07T17:57:08.664Z,3.20
2023-11-07T17:59:35.567Z,2.88
2023-11-07T18:02:02.626Z,2.97
2023-11-07T18:04:29.433Z,2.90
2023-11-07T18:06:59.136Z,2.50
2023-11-07T18:09:25.932Z,2.30
2023-11-07T18:11:53.001Z,2.50
2023-11-07T18:14:21.760Z,2.95
2023-11-07T18:16:48.817Z,2.15
2023-11-07T18:19:15.690Z,2.25
2023-11-07T18:21:45.864Z,2.17
2023-11-07T18:24:12.841Z,2.30
2023-11-07T18:26:44.550Z,2.00
2023-11-07T18:29:11.585Z,2.28
2023-11-07T18:31:38.974Z,2.50
2023-11-07T18:34:16.617Z,2.42
2023-11-07T18:37:01.568Z,2.33
2023-11-07T18:39:29.015Z,2.45
2023-11-07T18:41:56.378Z,2.20
2023-11-07T18:44:24.072Z,2.00
2023-11-07T18:46:51.192Z,2.30
2023-11-07T18:49:21.121Z,2.30
2023-11-07T18:51:50.928Z,2.55
2023-11-07T18:54:18.284Z,2.22
2023-11-07T18:56:45.900Z,2.40
2023-11-07T18:59:13.786Z,2.42
2023-11-07T19:01:43.843Z,2.80
2023-11-07T19:04:10.797Z,2.60
2023-11-07T19:06:37.922Z,3.95
2023-11-07T19:09:05.313Z,2.33
2023-11-07T19:11:32.344Z,2.80
2023-11-07T19:14:01.662Z,2.50
2023-11-07T19:16:29.329Z,3.00
2023-11-07T19:18:56.212Z,2.85
2023-11-07T19:21:25.748Z,2.08
2023-11-07T19:23:56.418Z,2.50
2023-11-07T19:26:29.425Z,2.50
2023-11-07T19:28:56.140Z,2.50
2023-11-07T19:31:23.678Z,2.35
2023-11-07T19:33:53.779Z,2.17
2023-11-07T19:36:21.138Z,2.80
2023-11-07T19:38:49.170Z,2.50
2023-11-07T19:41:19.053Z,2.83
2023-11-07T19:43:51.906Z,2.60
2023-11-07T19:46:22.804Z,3.10
2023-11-07T19:48:52.830Z,3.00
2023-11-07T19:51:30.409Z,2.65
2023-11-07T19:53:57.279Z,2.97
2023-11-07T19:56:26.983Z,2.75
2023-11-07T19:59:00.542Z,2.33
2023-11-07T20:01:27.991Z,2.50
2023-11-07T20:03:56.707Z,3.22
2023-11-07T20:06:24.034Z,3.50
2023-11-07T20:08:51.421Z,2.83
2023-11-07T20:11:19.075Z,2.22
2023-11-07T20:13:46.287Z,2.78
2023-11-07T20:16:14.360Z,2.72
2023-11-07T20:18:41.271Z,2.40
2023-11-07T20:21:08.222Z,2.13
2023-11-07T20:23:35.648Z,2.47
2023-11-07T20:26:05.658Z,2.55
2023-11-07T20:28:35.825Z,2.28
2023-11-07T20:31:05.544Z,2.55
2023-11-07T20:33:41.487Z,2.38
2023-11-07T20:36:19.372Z,2.38
2023-11-07T20:38:49.576Z,2.60
2023-11-07T20:41:19.933Z,2.38
2023-11-07T20:43:55.987Z,2.10
2023-11-07T20:46:33.570Z,2.15
2023-11-07T20:49:06.975Z,2.30
2023-11-07T20:51:36.337Z,1.83
2023-11-07T20:54:04.956Z,1.73
2023-11-07T20:56:33.678Z,1.90
2023-11-07T20:59:00.797Z,1.88
2023-11-07T21:01:36.752Z,2.22
2023-11-07T21:04:04.399Z,1.67
2023-11-07T21:06:32.055Z,2.05
2023-11-07T21:08:58.911Z,2.25
2023-11-07T21:11:27.243Z,2.00
2023-11-07T21:13:57.179Z,2.45
2023-11-07T21:16:24.086Z,1.90
2023-11-07T21:18:51.016Z,2.13
2023-11-07T21:21:23.632Z,2.20
2023-11-07T21:23:53.437Z,2.83
2023-11-07T21:26:22.731Z,3.25
2023-11-07T21:28:53.211Z,2.92
2023-11-07T21:31:20.341Z,3.40
2023-11-07T21:33:47.293Z,2.60
2023-11-07T21:36:14.182Z,3.08
2023-11-07T21:38:44.609Z,3.13
2023-11-07T21:41:11.386Z,1.83
2023-11-07T21:43:38.186Z,2.50
2023-11-07T21:46:05.047Z,2.45
2023-11-07T21:48:31.970Z,2.90
2023-11-07T21:50:58.833Z,3.33
2023-11-07T21:53:25.710Z,3.40
2023-11-07T21:55:54.549Z,3.08
2023-11-07T21:58:28.595Z,2.20
2023-11-07T22:01:01.216Z,1.85
2023-11-07T22:03:28.017Z,2.15
2023-11-07T22:05:54.816Z,2.13
2023-11-07T22:08:28.904Z,2.03
2023-11-07T22:10:55.643Z,1.67
2023-11-07T22:13:25.745Z,2.63
2023-11-07T22:15:52.855Z,2.30
2023-11-07T22:18:19.722Z,1.58
2023-11-07T22:20:46.715Z,2.60
2023-11-07T22:23:13.444Z,1.80
2023-11-07T22:25:40.570Z,1.67
2023-11-07T22:28:08.691Z,2.10
2023-11-07T22:30:36.022Z,2.10
2023-11-07T22:33:05.852Z,1.88
2023-11-07T22:35:34.501Z,2.67
2023-11-07T22:38:04.670Z,2.17
2023-11-07T22:40:31.615Z,2.63
2023-11-07T22:42:59.119Z,2.30
2023-11-07T22:45:28.981Z,2.50
2023-11-07T22:47:55.770Z,1.60
2023-11-07T22:50:24.628Z,2.22
2023-11-07T22:52:51.460Z,2.50
2023-11-07T22:55:18.278Z,2.30
2023-11-07T22:57:48.333Z,2.08
2023-11-07T23:00:28.857Z,2.00
2023-11-07T23:03:00.814Z,2.00
2023-11-07T23:05:28.008Z,2.20
2023-11-07T23:07:55.609Z,2.05
2023-11-07T23:10:25.652Z,2.17
2023-11-07T23:12:55.231Z,1.27
2023-11-07T23:15:22.084Z,1.45
2023-11-07T23:17:48.906Z,2.47
2023-11-07T23:20:16.928Z,2.20
2023-11-07T23:22:43.915Z,1.80
2023-11-07T23:25:13.231Z,1.48
2023-11-07T23:27:40.597Z,1.95
2023-11-07T23:30:10.945Z,2.65
2023-11-07T23:32:39.171Z,2.33
2023-11-07T23:35:10.717Z,1.83
2023-11-07T23:37:37.754Z,2.13
2023-11-07T23:40:11.252Z,2.30
2023-11-07T23:42:39.715Z,1.63
2023-11-07T23:45:09.792Z,2.40
2023-11-07T23:47:37.053Z,2.50
2023-11-07T23:50:05.127Z,2.25
2023-11-07T23:52:31.893Z,2.40
2023-11-07T23:54:59.965Z,2.05
2023-11-07T23:57:30.959Z,2.33
2023-11-07T23:59:57.759Z,2.08
